Time;durP1;ratioP1;P1;durP2;ratioP2;P2;SDS_P1;SDS_P2;PMS_P1;PMS_P2;Temp;Humidity;BMP_temperature;BMP_pressure;BME280_temperature;BME280_humidity;BME280_pressure;Samples;Min_cycle;Max_cycle;Signal;HPM_P1;HPM_P2
2021/03/23 00:00:30;;;;;;;38.00;23.48;;;7.80;99.90;;;;;;4970255;28;20486;-73
2021/03/23 00:03:00;;;;;;;36.05;25.30;;;7.80;99.90;;;;;;4964208;28;20499;-73
2021/03/23 00:05:26;;;;;;;36.47;25.83;;;7.80;99.90;;;;;;4959096;28;20031;-73
2021/03/23 00:07:52;;;;;;;31.02;22.25;;;7.80;99.90;;;;;;4966109;28;20033;-73
2021/03/23 00:10:24;;;;;;;33.35;22.30;;;7.80;99.90;;;;;;4945393;28;20086;-73
2021/03/23 00:12:50;;;;;;;33.08;23.58;;;7.80;99.90;;;;;;4963009;28;20122;-72
2021/03/23 00:15:16;;;;;;;36.80;23.48;;;7.90;99.90;;;;;;4964103;28;20122;-72
2021/03/23 00:17:42;;;;;;;32.28;23.70;;;7.90;99.90;;;;;;4962814;28;20094;-73
2021/03/23 00:20:12;;;;;;;38.22;21.73;;;7.90;99.90;;;;;;4961340;28;20471;-73
2021/03/23 00:22:38;;;;;;;32.95;22.05;;;7.90;99.90;;;;;;4961277;28;20026;-73
2021/03/23 00:25:07;;;;;;;40.92;24.17;;;7.90;99.90;;;;;;4964759;28;20483;-73
2021/03/23 00:27:33;;;;;;;32.95;22.75;;;8.00;99.90;;;;;;4950484;28;20029;-73
2021/03/23 00:29:59;;;;;;;34.80;23.33;;;8.00;99.90;;;;;;4963129;28;20031;-73
2021/03/23 00:32:25;;;;;;;36.40;21.45;;;7.90;99.90;;;;;;4960878;28;20508;-73
2021/03/23 00:34:50;;;;;;;30.42;21.25;;;7.90;99.90;;;;;;4965796;28;20031;-73
2021/03/23 00:37:16;;;;;;;36.28;22.10;;;8.00;99.90;;;;;;4967079;28;20058;-73
2021/03/23 00:39:42;;;;;;;34.47;22.08;;;8.00;99.90;;;;;;4957187;28;20453;-73
2021/03/23 00:42:08;;;;;;;30.92;21.70;;;7.90;99.90;;;;;;4963151;28;20070;-73
2021/03/23 00:44:35;;;;;;;35.08;22.27;;;7.90;99.90;;;;;;4966052;28;20073;-73
2021/03/23 00:47:01;;;;;;;30.75;21.15;;;7.90;99.90;;;;;;4964772;28;20023;-73
2021/03/23 00:49:26;;;;;;;31.50;21.00;;;8.00;99.90;;;;;;4945263;28;20521;-73
2021/03/23 00:51:55;;;;;;;35.55;22.67;;;8.00;99.90;;;;;;4946133;28;20023;-73
2021/03/23 00:54:21;;;;;;;30.73;22.30;;;8.00;99.90;;;;;;4969637;28;20478;-73
2021/03/23 00:56:47;;;;;;;29.27;20.17;;;8.00;99.90;;;;;;4966974;28;20035;-73
2021/03/23 00:59:12;;;;;;;32.22;21.80;;;8.00;99.90;;;;;;4964880;28;20474;-73
2021/03/23 01:01:39;;;;;;;31.88;20.85;;;8.00;99.90;;;;;;4966858;28;20391;-73
2021/03/23 01:04:05;;;;;;;30.08;21.83;;;8.10;99.90;;;;;;4966806;28;20070;-73
2021/03/23 01:06:30;;;;;;;31.98;22.52;;;8.10;99.90;;;;;;4963240;28;20027;-74
2021/03/23 01:08:56;;;;;;;30.63;21.35;;;8.10;99.90;;;;;;4946643;28;20023;-73
2021/03/23 01:11:22;;;;;;;28.77;20.33;;;8.20;99.90;;;;;;4950876;28;20030;-73
2021/03/23 01:13:48;;;;;;;32.33;21.75;;;8.10;99.90;;;;;;4968802;28;20507;-73
2021/03/23 01:16:13;;;;;;;33.50;19.98;;;8.20;99.90;;;;;;4964948;28;20023;-73
2021/03/23 01:18:39;;;;;;;31.17;21.77;;;8.10;99.90;;;;;;4965465;28;20100;-73
2021/03/23 01:21:05;;;;;;;31.05;21.08;;;8.10;99.90;;;;;;4966890;28;20019;-73
2021/03/23 01:23:31;;;;;;;30.35;21.73;;;8.20;99.90;;;;;;4959793;28;20058;-73
2021/03/23 01:25:57;;;;;;;30.15;20.85;;;8.20;99.90;;;;;;4966827;28;20440;-73
2021/03/23 01:28:22;;;;;;;34.53;18.88;;;8.20;99.90;;;;;;4966274;28;20488;-73
2021/03/23 01:30:48;;;;;;;29.05;20.17;;;8.10;99.90;;;;;;4966661;28;20483;-73
2021/03/23 01:33:13;;;;;;;29.20;20.10;;;8.10;99.90;;;;;;4965793;28;20039;-73
2021/03/23 01:35:39;;;;;;;31.65;20.90;;;8.20;99.90;;;;;;4949040;28;20421;-72
2021/03/23 01:38:05;;;;;;;29.35;20.35;;;8.20;99.90;;;;;;4950587;28;20023;-72
2021/03/23 01:40:31;;;;;;;33.08;20.90;;;8.20;99.90;;;;;;4960915;28;20136;-72
2021/03/23 01:43:02;;;;;;;30.80;22.25;;;8.20;99.90;;;;;;4951794;28;20057;-73
2021/03/23 01:45:35;;;;;;;30.45;20.55;;;8.20;99.90;;;;;;4961914;28;20712;-73
2021/03/23 01:48:06;;;;;;;32.20;21.48;;;8.20;99.90;;;;;;4963420;28;20038;-73
2021/03/23 01:50:33;;;;;;;29.45;19.45;;;8.30;99.90;;;;;;4968895;28;20041;-73
2021/03/23 01:53:13;;;;;;;28.98;20.15;;;8.20;99.90;;;;;;4965342;28;20043;-72
2021/03/23 01:55:39;;;;;;;32.00;19.30;;;8.20;99.90;;;;;;4971664;28;20034;-73
2021/03/23 01:58:06;;;;;;;33.22;22.00;;;8.20;99.90;;;;;;4968147;28;20027;-73
2021/03/23 02:00:33;;;;;;;31.45;21.40;;;8.20;99.90;;;;;;4970184;28;20095;-73
2021/03/23 02:02:59;;;;;;;30.27;21.15;;;8.20;99.90;;;;;;4969770;28;20042;-73
2021/03/23 02:05:28;;;;;;;30.85;21.08;;;8.20;99.90;;;;;;4970001;28;20031;-73
2021/03/23 02:07:55;;;;;;;33.92;22.67;;;8.20;99.90;;;;;;4964179;28;20038;-73
2021/03/23 02:10:21;;;;;;;31.13;22.05;;;8.20;99.90;;;;;;4970656;28;20023;-73
2021/03/23 02:12:48;;;;;;;31.95;20.70;;;8.20;99.90;;;;;;4966446;28;20039;-74
2021/03/23 02:15:16;;;;;;;29.65;20.08;;;8.10;99.90;;;;;;4966999;28;20419;-73
2021/03/23 02:17:42;;;;;;;28.67;20.70;;;8.20;99.90;;;;;;4969548;28;20042;-73
2021/03/23 02:20:13;;;;;;;33.83;21.48;;;8.20;99.90;;;;;;4969114;28;20022;-73
2021/03/23 02:22:44;;;;;;;30.50;21.67;;;8.20;99.90;;;;;;4966396;28;20019;-73
2021/03/23 02:25:21;;;;;;;35.78;21.23;;;8.20;99.90;;;;;;4947447;28;20039;-73
2021/03/23 02:27:47;;;;;;;32.35;22.08;;;8.20;99.90;;;;;;4962380;28;20062;-73
2021/03/23 02:30:25;;;;;;;34.63;22.23;;;8.20;99.90;;;;;;4964136;28;20122;-73
2021/03/23 02:33:24;;;;;;;31.67;19.80;;;8.20;99.90;;;;;;4970787;28;20414;-73
2021/03/23 02:35:50;;;;;;;36.08;21.08;;;8.20;99.90;;;;;;4966571;28;20030;-73
2021/03/23 02:38:16;;;;;;;32.63;21.80;;;8.20;99.90;;;;;;4948494;28;20031;-72
2021/03/23 02:40:42;;;;;;;35.42;21.50;;;8.20;99.90;;;;;;4968799;28;20038;-73
2021/03/23 02:43:09;;;;;;;34.50;21.70;;;8.20;99.90;;;;;;4967307;28;20064;-73
2021/03/23 02:45:35;;;;;;;30.35;21.77;;;8.20;99.90;;;;;;4971148;28;20022;-73
2021/03/23 02:48:00;;;;;;;36.70;23.13;;;8.20;99.90;;;;;;4966722;28;20031;-73
2021/03/23 02:50:26;;;;;;;35.53;22.27;;;8.20;99.90;;;;;;4968489;28;20569;-73
2021/03/23 02:52:52;;;;;;;38.13;23.45;;;8.20;99.90;;;;;;4963833;28;20114;-73
2021/03/23 02:55:18;;;;;;;33.78;23.25;;;8.20;99.90;;;;;;4962799;28;20032;-73
2021/03/23 02:57:43;;;;;;;37.03;24.02;;;8.20;99.90;;;;;;4963153;28;20794;-74
2021/03/23 03:00:13;;;;;;;35.17;24.52;;;8.20;99.90;;;;;;4966011;28;20060;-73
2021/03/23 03:02:38;;;;;;;34.90;21.67;;;8.20;99.90;;;;;;4959489;28;20109;-73
2021/03/23 03:05:06;;;;;;;38.15;22.77;;;8.30;99.90;;;;;;4955783;28;20102;-74
2021/03/23 03:07:31;;;;;;;39.15;24.30;;;8.40;99.90;;;;;;4958483;28;20097;-73
2021/03/23 03:09:57;;;;;;;37.75;24.48;;;8.30;99.90;;;;;;4964294;28;20066;-73
2021/03/23 03:12:23;;;;;;;37.55;23.55;;;8.30;99.90;;;;;;4968946;28;20046;-74
2021/03/23 03:14:49;;;;;;;36.22;23.83;;;8.30;99.90;;;;;;4970208;28;20403;-73
2021/03/23 03:17:14;;;;;;;38.67;22.48;;;8.30;99.90;;;;;;4971366;28;20030;-73
2021/03/23 03:19:40;;;;;;;37.20;22.95;;;8.30;99.90;;;;;;4967236;28;20034;-73
2021/03/23 03:22:05;;;;;;;36.80;22.85;;;8.30;99.90;;;;;;4952520;28;20031;-73
2021/03/23 03:24:31;;;;;;;37.28;23.40;;;8.30;99.90;;;;;;4963701;28;20035;-74
2021/03/23 03:26:57;;;;;;;34.95;22.92;;;8.30;99.90;;;;;;4967778;28;20077;-73
2021/03/23 03:29:22;;;;;;;37.25;20.85;;;8.20;99.90;;;;;;4964536;28;20023;-74
2021/03/23 03:31:48;;;;;;;43.25;22.63;;;8.30;99.90;;;;;;4967839;28;20109;-74
2021/03/23 03:34:13;;;;;;;36.58;21.42;;;8.30;99.90;;;;;;4965951;28;20043;-73
2021/03/23 03:36:39;;;;;;;38.50;24.38;;;8.20;99.90;;;;;;4964905;28;20041;-73
2021/03/23 03:39:06;;;;;;;34.22;22.05;;;8.30;99.90;;;;;;4964790;28;20137;-73
2021/03/23 03:41:32;;;;;;;38.75;24.55;;;8.20;99.90;;;;;;4963853;28;20041;-73
2021/03/23 03:43:58;;;;;;;33.10;22.08;;;8.30;99.90;;;;;;4971711;28;20034;-74
2021/03/23 03:46:24;;;;;;;32.28;21.20;;;8.30;99.90;;;;;;4965556;28;20034;-73
2021/03/23 03:48:50;;;;;;;36.28;21.17;;;8.30;99.90;;;;;;4966777;28;20364;-73
2021/03/23 03:51:16;;;;;;;33.08;22.00;;;8.20;99.90;;;;;;4962337;28;20063;-73
2021/03/23 03:53:41;;;;;;;37.08;21.10;;;8.30;99.90;;;;;;4961581;28;20038;-73
2021/03/23 03:56:07;;;;;;;36.92;22.05;;;8.30;99.90;;;;;;4951020;28;20053;-73
2021/03/23 03:58:33;;;;;;;43.58;22.65;;;8.30;99.90;;;;;;4968811;28;20042;-73
2021/03/23 04:00:59;;;;;;;35.67;21.77;;;8.30;99.90;;;;;;4966968;28;20638;-74
2021/03/23 04:03:28;;;;;;;42.35;22.52;;;8.40;99.90;;;;;;4962699;28;20381;-73
2021/03/23 04:05:56;;;;;;;38.28;21.83;;;8.30;99.90;;;;;;4968497;28;20046;-73
2021/03/23 04:08:26;;;;;;;42.63;22.23;;;8.40;99.90;;;;;;4960606;28;20031;-73
2021/03/23 04:10:52;;;;;;;37.17;21.88;;;8.30;99.90;;;;;;4947234;28;20380;-73
2021/03/23 04:13:19;;;;;;;43.00;21.90;;;8.30;99.90;;;;;;4968158;28;20053;-73
2021/03/23 04:15:46;;;;;;;32.65;19.77;;;8.20;99.90;;;;;;4968546;28;20030;-73
2021/03/23 04:18:14;;;;;;;31.95;20.13;;;8.20;99.90;;;;;;4964657;28;20067;-73
2021/03/23 04:20:41;;;;;;;36.92;20.70;;;8.30;99.90;;;;;;4960094;28;20102;-72
2021/03/23 04:23:10;;;;;;;35.40;20.83;;;8.30;99.90;;;;;;4964628;28;20027;-73
2021/03/23 04:25:35;;;;;;;37.00;20.85;;;8.30;99.90;;;;;;4958897;28;20028;-73
2021/03/23 04:28:02;;;;;;;37.33;20.75;;;8.30;99.90;;;;;;4962387;28;20041;-74
2021/03/23 04:30:28;;;;;;;33.78;18.80;;;8.20;99.90;;;;;;4967652;28;20027;-73
2021/03/23 04:32:55;;;;;;;39.38;20.52;;;8.20;99.90;;;;;;4964958;28;20093;-74
2021/03/23 04:35:26;;;;;;;29.33;17.75;;;8.30;99.90;;;;;;4968851;28;20023;-73
2021/03/23 04:37:53;;;;;;;31.38;18.70;;;8.30;99.90;;;;;;4965900;28;20038;-74
2021/03/23 04:40:19;;;;;;;32.75;18.42;;;8.30;99.90;;;;;;4967438;28;20034;-73
2021/03/23 04:42:45;;;;;;;32.35;18.95;;;8.20;99.90;;;;;;4964259;28;20035;-73
2021/03/23 04:45:11;;;;;;;38.53;19.10;;;8.30;99.90;;;;;;4964911;28;20026;-73
2021/03/23 04:47:37;;;;;;;36.65;20.70;;;8.30;99.90;;;;;;4967808;28;20031;-73
2021/03/23 04:50:03;;;;;;;34.17;20.08;;;8.30;99.90;;;;;;4964909;28;20228;-73
2021/03/23 04:52:29;;;;;;;31.35;18.48;;;8.30;99.90;;;;;;4959537;28;20483;-73
2021/03/23 04:54:55;;;;;;;34.13;18.45;;;8.20;99.90;;;;;;4963396;28;20046;-73
2021/03/23 04:57:20;;;;;;;32.28;19.50;;;8.20;99.90;;;;;;4966470;28;20027;-73
2021/03/23 04:59:46;;;;;;;38.80;19.52;;;8.30;99.90;;;;;;4970667;28;20034;-74
2021/03/23 05:02:11;;;;;;;41.15;19.25;;;8.20;99.90;;;;;;4964784;28;20027;-73
2021/03/23 05:04:37;;;;;;;31.38;17.00;;;8.20;99.90;;;;;;4968577;28;20034;-73
2021/03/23 05:07:03;;;;;;;31.85;18.42;;;8.30;99.90;;;;;;4967673;28;20026;-73
2021/03/23 05:09:28;;;;;;;37.58;19.83;;;8.20;99.90;;;;;;4963366;28;20031;-73
2021/03/23 05:11:54;;;;;;;35.85;19.52;;;8.20;99.90;;;;;;4968360;28;20033;-73
2021/03/23 05:14:20;;;;;;;35.28;18.52;;;8.30;99.90;;;;;;4970124;28;20042;-73
2021/03/23 05:16:45;;;;;;;30.70;17.92;;;8.30;99.90;;;;;;4967509;28;20030;-74
2021/03/23 05:19:11;;;;;;;35.60;18.15;;;8.30;99.90;;;;;;4963901;28;20031;-73
2021/03/23 05:21:36;;;;;;;34.70;18.20;;;8.30;99.90;;;;;;4957461;28;20023;-74
2021/03/23 05:24:03;;;;;;;37.17;18.23;;;8.30;99.90;;;;;;4961126;28;20029;-73
2021/03/23 05:26:29;;;;;;;35.75;17.77;;;8.30;99.90;;;;;;4969534;28;20111;-74
2021/03/23 05:28:55;;;;;;;34.03;18.50;;;8.30;99.90;;;;;;4963557;28;20033;-74
2021/03/23 05:31:21;;;;;;;33.33;18.20;;;8.30;99.90;;;;;;4968369;28;20164;-73
2021/03/23 05:33:50;;;;;;;37.78;20.30;;;8.20;99.90;;;;;;4964879;28;20058;-74
2021/03/23 05:36:16;;;;;;;33.58;17.98;;;8.20;99.90;;;;;;4969922;28;20571;-73
2021/03/23 05:38:41;;;;;;;32.30;17.75;;;8.20;99.90;;;;;;4971175;28;20117;-73
2021/03/23 05:41:27;;;;;;;34.25;19.42;;;8.20;99.90;;;;;;4967686;28;20490;-73
2021/03/23 05:44:26;;;;;;;33.10;16.92;;;8.30;99.90;;;;;;4970388;28;20023;-73
2021/03/23 05:46:53;;;;;;;34.42;17.13;;;8.20;99.90;;;;;;4971514;28;20047;-73
2021/03/23 05:49:39;;;;;;;34.03;18.92;;;8.30;99.90;;;;;;4965296;28;20797;-73
2021/03/23 05:52:27;;;;;;;35.90;18.27;;;8.30;99.90;;;;;;4969602;28;20038;-74
2021/03/23 05:55:19;;;;;;;35.83;18.02;;;8.30;99.90;;;;;;4964127;28;20027;-73
2021/03/23 05:57:48;;;;;;;34.33;18.27;;;8.30;99.90;;;;;;4972589;28;20105;-73
2021/03/23 06:00:34;;;;;;;37.50;18.48;;;8.40;99.90;;;;;;4964890;28;20059;-73
2021/03/23 06:03:29;;;;;;;38.92;18.70;;;8.40;99.90;;;;;;4967359;28;20483;-73
2021/03/23 06:06:04;;;;;;;42.53;18.38;;;8.30;99.90;;;;;;4968255;28;20027;-73
2021/03/23 06:08:36;;;;;;;33.15;19.27;;;8.40;99.90;;;;;;4961029;28;20183;-73
2021/03/23 06:11:19;;;;;;;37.50;19.15;;;8.40;99.90;;;;;;4970169;28;20027;-73
2021/03/23 06:13:52;;;;;;;37.60;17.70;;;8.40;99.90;;;;;;4967763;28;20130;-73
2021/03/23 06:16:21;;;;;;;;;;;8.40;99.90;;;;;;4965819;28;20069;-74
2021/03/23 06:19:17;;;;;;;34.05;17.45;;;8.40;99.90;;;;;;4969405;28;19910;-73
2021/03/23 06:21:46;;;;;;;34.55;19.08;;;8.40;99.90;;;;;;4948795;28;20115;-73
2021/03/23 06:24:33;;;;;;;45.92;19.77;;;8.40;99.90;;;;;;4963843;28;20399;-73
2021/03/23 06:27:11;;;;;;;42.22;19.77;;;8.40;99.90;;;;;;4970493;28;20113;-74
2021/03/23 06:30:19;;;;;;;36.45;19.98;;;8.40;99.90;;;;;;4951058;28;20386;-73
2021/03/23 06:32:53;;;;;;;37.30;18.75;;;8.30;99.90;;;;;;4966414;28;20122;-73
2021/03/23 06:35:21;;;;;;;33.03;17.15;;;8.40;99.90;;;;;;4945543;28;20027;-73
2021/03/23 06:37:47;;;;;;;35.55;19.05;;;8.40;99.90;;;;;;4962482;28;20024;-73
2021/03/23 06:40:14;;;;;;;36.72;18.67;;;8.40;99.90;;;;;;4964978;28;20042;-72
2021/03/23 06:42:47;;;;;;;34.15;17.23;;;8.50;99.90;;;;;;4964660;28;20427;-73
2021/03/23 06:45:20;;;;;;;37.60;17.45;;;8.40;99.90;;;;;;4961525;28;20038;-72
2021/03/23 06:47:47;;;;;;;37.13;19.38;;;8.50;99.90;;;;;;4968770;28;20029;-73
2021/03/23 06:50:18;;;;;;;35.80;19.38;;;8.50;99.90;;;;;;4965894;28;20043;-72
2021/03/23 06:52:44;;;;;;;39.80;18.95;;;8.50;99.90;;;;;;4970716;28;20031;-72
2021/03/23 06:55:20;;;;;;;36.70;18.15;;;8.50;99.90;;;;;;4966832;28;20039;-73
2021/03/23 06:57:46;;;;;;;37.58;18.15;;;8.60;99.90;;;;;;4952237;28;20475;-72
2021/03/23 07:00:15;;;;;;;38.08;17.30;;;8.60;99.90;;;;;;4956454;28;20027;-72
2021/03/23 07:02:46;;;;;;;43.85;19.92;;;8.60;99.90;;;;;;4962538;28;20479;-72
2021/03/23 07:05:27;;;;;;;40.63;18.48;;;8.60;99.90;;;;;;4960869;28;20019;-72
2021/03/23 07:07:57;;;;;;;40.97;18.23;;;8.60;99.90;;;;;;4960547;28;20063;-72
2021/03/23 07:10:33;;;;;;;38.08;18.02;;;8.60;99.90;;;;;;4963205;28;20031;-72
2021/03/23 07:13:00;;;;;;;41.05;17.60;;;8.70;99.90;;;;;;4960574;28;20043;-72
2021/03/23 07:15:34;;;;;;;35.67;17.45;;;8.70;99.90;;;;;;4961209;28;20027;-73
2021/03/23 07:18:06;;;;;;;33.30;17.95;;;8.60;99.90;;;;;;4959264;28;20388;-73
2021/03/23 07:20:36;;;;;;;43.60;18.60;;;8.70;99.90;;;;;;4945217;28;20027;-73
2021/03/23 07:23:21;;;;;;;36.35;16.92;;;8.60;99.90;;;;;;4965923;28;20031;-72
2021/03/23 07:25:47;;;;;;;41.35;18.67;;;8.70;99.90;;;;;;4959592;28;20033;-71
2021/03/23 07:28:36;;;;;;;43.90;19.55;;;8.80;99.90;;;;;;4961965;28;20031;-72
2021/03/23 07:31:17;;;;;;;38.25;18.65;;;8.80;99.90;;;;;;4946906;28;20027;-71
2021/03/23 07:34:04;;;;;;;43.78;19.42;;;8.80;99.90;;;;;;4959001;28;20077;-71
2021/03/23 07:36:35;;;;;;;43.40;18.25;;;9.00;99.90;;;;;;4960998;28;20042;-72
2021/03/23 07:39:12;;;;;;;39.22;19.60;;;9.00;99.90;;;;;;4963731;28;20031;-72
2021/03/23 07:41:50;;;;;;;39.58;18.77;;;9.00;99.90;;;;;;4964265;28;20435;-71
2021/03/23 07:44:43;;;;;;;36.25;17.20;;;9.10;99.90;;;;;;4966496;28;20031;-71
2021/03/23 07:47:23;;;;;;;38.80;17.60;;;9.30;99.90;;;;;;4964434;28;20070;-71
2021/03/23 07:50:13;;;;;;;32.35;17.23;;;9.40;99.90;;;;;;4961885;28;20498;-71
2021/03/23 07:52:59;;;;;;;39.70;18.33;;;9.40;99.90;;;;;;4963823;28;20034;-71
2021/03/23 07:55:27;;;;;;;43.67;20.33;;;9.40;99.90;;;;;;4959212;28;20032;-71
2021/03/23 07:58:11;;;;;;;44.92;19.00;;;9.60;99.90;;;;;;4962825;28;20030;-71
2021/03/23 08:01:13;;;;;;;39.28;17.83;;;9.60;99.90;;;;;;4959888;28;20032;-72
2021/03/23 08:04:03;;;;;;;41.72;19.58;;;9.70;99.90;;;;;;4953661;28;20043;-71
2021/03/23 08:06:35;;;;;;;33.33;17.25;;;9.60;99.90;;;;;;4961696;28;20034;-71
2021/03/23 08:09:42;;;;;;;39.05;17.98;;;9.60;99.90;;;;;;4963898;28;20024;-71
2021/03/23 08:12:35;;;;;;;34.65;18.27;;;9.70;99.90;;;;;;4937223;28;20043;-71
2021/03/23 08:15:38;;;;;;;37.30;19.50;;;9.80;99.90;;;;;;4963332;28;20113;-71
2021/03/23 08:18:32;;;;;;;37.90;19.73;;;9.80;99.90;;;;;;4965612;28;20081;-71
2021/03/23 08:21:23;;;;;;;39.75;18.80;;;10.00;99.90;;;;;;4929565;28;20073;-71
2021/03/23 08:24:07;;;;;;;37.92;19.42;;;10.10;99.90;;;;;;4964824;28;20040;-72
2021/03/23 08:26:57;;;;;;;33.60;18.50;;;10.30;99.90;;;;;;4968579;28;20023;-72
2021/03/23 08:29:42;;;;;;;32.85;18.42;;;10.20;99.90;;;;;;4955307;28;20059;-71
2021/03/23 08:32:13;;;;;;;37.13;17.95;;;10.00;99.90;;;;;;4959709;28;20034;-72
2021/03/23 08:34:45;;;;;;;43.95;19.92;;;10.20;99.90;;;;;;4964646;28;20043;-74
2021/03/23 08:37:37;;;;;;;38.15;20.13;;;10.30;99.90;;;;;;4962153;28;20026;-71
2021/03/23 08:40:20;;;;;;;39.60;19.35;;;10.20;99.90;;;;;;4952436;28;20499;-72
2021/03/23 08:42:47;;;;;;;38.53;20.10;;;10.30;99.90;;;;;;4966497;28;20115;-72
2021/03/23 08:45:28;;;;;;;37.05;18.77;;;10.30;99.90;;;;;;4966978;28;20037;-72
2021/03/23 08:48:01;;;;;;;35.00;19.15;;;10.40;99.90;;;;;;4960933;28;20030;-71
2021/03/23 08:50:42;;;;;;;35.97;18.40;;;10.60;99.90;;;;;;4968540;28;20038;-71
2021/03/23 08:53:28;;;;;;;38.15;18.60;;;10.70;99.90;;;;;;4963019;28;20480;-72
2021/03/23 08:55:55;;;;;;;36.30;19.08;;;10.90;99.90;;;;;;4949173;28;20459;-72
2021/03/23 08:58:57;;;;;;;38.28;21.20;;;11.00;99.90;;;;;;4962583;28;20023;-72
2021/03/23 09:01:26;;;;;;;30.42;18.65;;;11.10;99.90;;;;;;4945624;28;20089;-71
2021/03/23 09:03:54;;;;;;;36.83;19.70;;;11.20;99.90;;;;;;4962266;28;20023;-72
2021/03/23 09:06:24;;;;;;;34.35;19.35;;;11.20;99.90;;;;;;4963911;28;20028;-72
2021/03/23 09:08:53;;;;;;;33.78;18.77;;;11.20;99.90;;;;;;4963776;28;20026;-71
2021/03/23 09:11:41;;;;;;;29.42;16.55;;;11.30;99.90;;;;;;4963438;28;20404;-71
2021/03/23 09:14:08;;;;;;;31.95;17.73;;;11.10;99.90;;;;;;4925917;28;20047;-72
2021/03/23 09:16:58;;;;;;;35.45;18.05;;;11.40;99.90;;;;;;4965044;28;20111;-72
2021/03/23 09:20:05;;;;;;;32.88;17.20;;;11.30;99.90;;;;;;4966315;28;20038;-72
2021/03/23 09:22:34;;;;;;;28.58;16.90;;;11.40;99.90;;;;;;4899523;29;20527;-73
2021/03/23 09:25:21;;;;;;;28.00;14.98;;;11.50;99.90;;;;;;4939401;28;20372;-72
2021/03/23 09:27:50;;;;;;;25.98;14.05;;;11.50;99.90;;;;;;4940092;28;20045;-72
2021/03/23 09:30:39;;;;;;;24.17;14.23;;;11.60;99.90;;;;;;4944388;28;20050;-72
2021/03/23 09:33:17;;;;;;;25.80;15.35;;;11.70;99.90;;;;;;4960467;28;20026;-71
2021/03/23 09:36:02;;;;;;;25.92;16.27;;;11.70;99.90;;;;;;4970855;28;20031;-71
2021/03/23 09:38:38;;;;;;;29.02;15.27;;;11.70;99.90;;;;;;4961910;28;20452;-71
2021/03/23 09:41:06;;;;;;;25.52;14.70;;;11.80;99.90;;;;;;4962680;28;20027;-71
2021/03/23 09:43:38;;;;;;;28.33;13.50;;;11.90;99.90;;;;;;4949569;28;20026;-71
2021/03/23 09:46:33;;;;;;;31.00;14.45;;;11.80;99.90;;;;;;4969359;28;20042;-71
2021/03/23 09:49:21;;;;;;;29.73;14.55;;;12.00;99.90;;;;;;4922605;28;20055;-71
2021/03/23 09:51:57;;;;;;;27.70;13.70;;;11.80;99.90;;;;;;4969137;28;20030;-71
2021/03/23 09:54:34;;;;;;;30.27;15.10;;;11.80;99.90;;;;;;4962673;28;20039;-71
2021/03/23 09:57:03;;;;;;;22.38;13.48;;;11.90;99.90;;;;;;4965599;28;20049;-71
2021/03/23 09:59:32;;;;;;;28.50;15.77;;;11.80;99.90;;;;;;4962002;28;20027;-71
2021/03/23 10:02:19;;;;;;;26.88;14.05;;;11.90;99.90;;;;;;4963093;28;20016;-71
2021/03/23 10:04:45;;;;;;;32.47;14.98;;;11.90;99.90;;;;;;4960905;28;20042;-71
2021/03/23 10:07:37;;;;;;;26.08;13.80;;;12.10;99.90;;;;;;4972378;28;20015;-71
2021/03/23 10:10:19;;;;;;;25.80;12.77;;;12.10;99.90;;;;;;4961813;28;20027;-71
2021/03/23 10:12:44;;;;;;;21.67;13.27;;;12.30;99.90;;;;;;4963951;28;20114;-71
2021/03/23 10:15:20;;;;;;;26.83;13.50;;;12.60;99.90;;;;;;4964761;28;20121;-71
2021/03/23 10:17:46;;;;;;;23.48;12.50;;;12.80;99.90;;;;;;4966030;28;20037;-71
2021/03/23 10:20:20;;;;;;;21.55;11.10;;;13.10;99.90;;;;;;4966185;28;20031;-71
2021/03/23 10:22:53;;;;;;;21.45;12.05;;;13.20;99.90;;;;;;4963652;28;20045;-71
2021/03/23 10:25:20;;;;;;;21.63;11.80;;;13.20;99.90;;;;;;4968021;28;20031;-71
2021/03/23 10:27:47;;;;;;;19.17;10.40;;;13.20;99.90;;;;;;4956682;28;20636;-71
2021/03/23 10:30:15;;;;;;;22.27;10.93;;;13.40;99.90;;;;;;4962778;28;20105;-71
2021/03/23 10:32:41;;;;;;;19.35;10.23;;;13.60;99.90;;;;;;4942537;28;20491;-71
2021/03/23 10:35:12;;;;;;;19.42;10.25;;;13.70;99.90;;;;;;4968069;28;20019;-71
2021/03/23 10:37:38;;;;;;;23.85;12.48;;;13.70;99.90;;;;;;4967828;28;20546;-71
2021/03/23 10:40:06;;;;;;;21.10;12.68;;;13.70;99.90;;;;;;4966449;28;20109;-71
2021/03/23 10:42:34;;;;;;;22.20;12.35;;;13.70;99.90;;;;;;4960707;28;20038;-71
2021/03/23 10:45:28;;;;;;;22.00;10.63;;;13.70;99.90;;;;;;4954612;28;20027;-71
2021/03/23 10:48:25;;;;;;;19.15;11.15;;;13.80;99.90;;;;;;4963430;28;20106;-71
2021/03/23 10:51:18;;;;;;;20.60;11.18;;;13.80;99.90;;;;;;4965797;28;20491;-71
2021/03/23 10:54:07;;;;;;;20.27;10.45;;;13.80;99.90;;;;;;4950134;28;20039;-71
2021/03/23 10:56:39;;;;;;;17.52;10.68;;;13.90;99.90;;;;;;4964261;28;20046;-71
2021/03/23 10:59:17;;;;;;;22.83;11.63;;;14.10;99.90;;;;;;4962443;28;20089;-72
2021/03/23 11:02:03;;;;;;;19.15;11.20;;;14.10;99.90;;;;;;4964468;28;20042;-71
2021/03/23 11:04:31;;;;;;;22.75;11.65;;;14.10;99.90;;;;;;4966946;28;20035;-71
2021/03/23 11:07:16;;;;;;;20.52;10.55;;;14.10;99.90;;;;;;4964421;28;20023;-71
2021/03/23 11:09:41;;;;;;;21.50;11.95;;;14.30;99.90;;;;;;4964584;28;20551;-72
2021/03/23 11:12:07;;;;;;;25.83;12.05;;;14.40;99.90;;;;;;4957102;28;20027;-71
2021/03/23 11:14:33;;;;;;;20.60;11.88;;;14.40;99.90;;;;;;4969063;28;20530;-71
2021/03/23 11:17:00;;;;;;;20.42;11.20;;;14.50;99.90;;;;;;4962394;28;20062;-71
2021/03/23 11:19:31;;;;;;;20.52;11.02;;;14.60;99.90;;;;;;4961952;28;20095;-71
2021/03/23 11:22:04;;;;;;;26.77;12.38;;;14.80;99.90;;;;;;4959253;28;20031;-72
2021/03/23 11:24:31;;;;;;;25.08;13.50;;;14.80;99.90;;;;;;4960757;28;20058;-72
2021/03/23 11:26:58;;;;;;;20.85;12.05;;;14.80;99.90;;;;;;4956428;28;20035;-71
2021/03/23 11:29:24;;;;;;;21.85;12.95;;;14.90;99.90;;;;;;4963152;28;20011;-72
2021/03/23 11:31:50;;;;;;;20.58;12.40;;;14.90;99.90;;;;;;4958019;28;20046;-71
2021/03/23 11:34:16;;;;;;;25.10;12.55;;;14.90;99.90;;;;;;4963529;28;20039;-71
2021/03/23 11:36:42;;;;;;;27.88;13.98;;;14.90;99.90;;;;;;4966555;28;20037;-71
2021/03/23 11:39:12;;;;;;;23.17;12.15;;;15.00;99.90;;;;;;4958980;28;20027;-71
2021/03/23 11:41:43;;;;;;;25.45;12.95;;;15.00;99.90;;;;;;4965387;28;20027;-71
2021/03/23 11:44:23;;;;;;;22.55;11.95;;;15.00;99.90;;;;;;4968364;28;20495;-71
2021/03/23 11:47:22;;;;;;;22.10;11.98;;;14.90;99.90;;;;;;4963369;28;20029;-71
2021/03/23 11:50:01;;;;;;;24.08;11.93;;;15.00;99.90;;;;;;4957795;28;20039;-71
2021/03/23 11:52:27;;;;;;;21.95;11.65;;;15.10;99.90;;;;;;4957525;28;20043;-71
2021/03/23 11:54:53;;;;;;;18.65;11.25;;;15.10;99.90;;;;;;4962424;28;20391;-71
2021/03/23 11:57:19;;;;;;;23.48;12.82;;;15.10;99.90;;;;;;4958536;28;20023;-71
2021/03/23 11:59:45;;;;;;;16.35;11.20;;;15.00;99.90;;;;;;4958441;28;20035;-71
2021/03/23 12:02:11;;;;;;;20.77;11.07;;;15.10;99.90;;;;;;4957408;28;20672;-71
2021/03/23 12:04:37;;;;;;;18.15;10.13;;;15.30;99.90;;;;;;4954533;28;20361;-71
2021/03/23 12:07:18;;;;;;;22.02;12.30;;;15.30;99.90;;;;;;4962382;28;20019;-71
2021/03/23 12:09:54;;;;;;;20.52;11.02;;;15.20;99.90;;;;;;4966684;28;20133;-71
2021/03/23 12:12:30;;;;;;;19.33;10.40;;;15.20;99.90;;;;;;4964105;28;20037;-71
2021/03/23 12:15:05;;;;;;;18.33;11.27;;;15.30;99.90;;;;;;4949717;28;20031;-71
2021/03/23 12:17:36;;;;;;;16.67;10.38;;;15.30;99.90;;;;;;4957031;28;20023;-71
2021/03/23 12:20:12;;;;;;;20.77;10.43;;;15.30;99.90;;;;;;4963346;28;20051;-71
2021/03/23 12:22:38;;;;;;;16.60;10.80;;;15.40;99.90;;;;;;4960592;28;20023;-71
2021/03/23 12:25:06;;;;;;;24.40;11.88;;;15.40;99.90;;;;;;4963071;28;20038;-71
2021/03/23 12:27:32;;;;;;;19.73;10.98;;;15.40;99.90;;;;;;4968342;28;20035;-72
2021/03/23 12:30:00;;;;;;;19.02;10.90;;;15.40;99.90;;;;;;4962907;28;20026;-71
2021/03/23 12:32:26;;;;;;;24.55;12.95;;;15.40;99.90;;;;;;4961169;28;20073;-71
2021/03/23 12:34:52;;;;;;;20.10;11.07;;;15.40;99.90;;;;;;4963685;28;20323;-72
2021/03/23 12:37:18;;;;;;;20.88;12.82;;;15.40;99.90;;;;;;4937955;28;20039;-72
2021/03/23 12:39:44;;;;;;;23.48;12.57;;;15.20;99.90;;;;;;4959093;28;20045;-72
2021/03/23 12:42:15;;;;;;;21.58;13.38;;;15.40;99.90;;;;;;4960247;28;20113;-72
2021/03/23 12:44:42;;;;;;;23.90;12.30;;;15.50;99.90;;;;;;4962802;28;20075;-72
2021/03/23 12:47:10;;;;;;;21.52;13.13;;;15.50;99.90;;;;;;4965351;28;20447;-72
2021/03/23 12:49:35;;;;;;;22.40;12.18;;;15.50;99.90;;;;;;4963789;28;20062;-72
2021/03/23 12:52:03;;;;;;;22.50;12.52;;;15.60;99.90;;;;;;4965070;28;20046;-72
2021/03/23 12:54:55;;;;;;;21.02;12.13;;;15.60;99.90;;;;;;4947113;28;20500;-72
2021/03/23 12:57:24;;;;;;;22.05;12.55;;;15.50;99.90;;;;;;4965373;28;20097;-72